Time;durP1;ratioP1;P1;durP2;ratioP2;P2;SDS_P1;SDS_P2;PMS_P1;PMS_P2;Temp;Humidity;BMP_temperature;BMP_pressure;BME280_temperature;BME280_humidity;BME280_pressure;Samples;Min_cycle;Max_cycle;Signal;HPM_P1;HPM_P2
2023/05/07 00:00:00;;;;;;;1.75;1.63;;;15.80;38.30;;;;;;5034256;28;20032;-70
2023/05/07 00:02:26;;;;;;;2.13;1.50;;;15.90;38.30;;;;;;5034280;28;20036;-70
2023/05/07 00:04:52;;;;;;;1.80;1.55;;;15.90;38.30;;;;;;5034353;28;20108;-70
2023/05/07 00:07:18;;;;;;;1.50;1.40;;;15.80;38.20;;;;;;5034199;28;20068;-70
2023/05/07 00:09:44;;;;;;;1.50;1.40;;;15.80;38.30;;;;;;5034248;28;20049;-70
2023/05/07 00:12:10;;;;;;;1.80;1.70;;;15.80;38.30;;;;;;5033749;28;20046;-71
2023/05/07 00:14:36;;;;;;;1.70;1.60;;;15.80;38.40;;;;;;5033996;28;20033;-70
2023/05/07 00:17:01;;;;;;;1.50;1.40;;;15.80;38.40;;;;;;5034224;28;20025;-69
2023/05/07 00:19:27;;;;;;;1.58;1.48;;;15.70;38.30;;;;;;5033909;28;20052;-69
2023/05/07 00:21:56;;;;;;;1.50;1.40;;;15.70;38.40;;;;;;5033992;28;20033;-70
2023/05/07 00:24:22;;;;;;;1.88;1.70;;;15.70;38.40;;;;;;5033065;28;20025;-69
2023/05/07 00:26:48;;;;;;;1.85;1.50;;;15.70;38.40;;;;;;5033790;28;20026;-70
2023/05/07 00:29:14;;;;;;;1.60;1.50;;;15.70;38.40;;;;;;5033852;28;20045;-69
2023/05/07 00:31:39;;;;;;;1.50;1.40;;;15.70;38.40;;;;;;5033914;28;20043;-69
2023/05/07 00:34:05;;;;;;;1.77;1.50;;;15.70;38.50;;;;;;5032773;28;20106;-69
2023/05/07 00:36:31;;;;;;;1.67;1.40;;;15.70;38.50;;;;;;5046779;28;20032;-69
2023/05/07 00:39:00;;;;;;;2.78;1.33;;;15.70;38.50;;;;;;5053497;28;20025;-69
2023/05/07 00:41:26;;;;;;;2.13;1.48;;;15.60;38.40;;;;;;5053606;28;20033;-70
2023/05/07 00:43:52;;;;;;;1.42;1.33;;;15.60;38.40;;;;;;5053398;28;20036;-69
2023/05/07 00:46:21;;;;;;;1.50;1.40;;;15.60;38.60;;;;;;5053674;28;20375;-69
2023/05/07 00:48:47;;;;;;;1.70;1.60;;;15.60;38.50;;;;;;5052096;28;20029;-70
2023/05/07 00:51:13;;;;;;;1.60;1.50;;;15.60;38.50;;;;;;5052253;28;20464;-69
2023/05/07 00:53:39;;;;;;;1.23;1.13;;;15.60;38.50;;;;;;5053259;28;20032;-69
2023/05/07 00:56:06;;;;;;;1.60;1.50;;;15.60;38.50;;;;;;5053094;28;20104;-70
2023/05/07 00:58:33;;;;;;;1.67;1.50;;;15.60;38.50;;;;;;5053458;28;20028;-70
2023/05/07 01:00:59;;;;;;;1.83;1.42;;;15.60;38.60;;;;;;5053080;28;20418;-70
2023/05/07 01:03:25;;;;;;;2.17;1.80;;;15.50;38.50;;;;;;5053318;28;20021;-69
2023/05/07 01:05:53;;;;;;;2.30;1.42;;;15.50;38.60;;;;;;5053347;28;20379;-70
2023/05/07 01:08:20;;;;;;;2.63;1.60;;;15.50;38.60;;;;;;5053170;28;20032;-69
2023/05/07 01:10:46;;;;;;;3.00;1.73;;;15.50;38.60;;;;;;5051582;28;20094;-69
2023/05/07 01:13:13;;;;;;;1.70;1.60;;;15.50;38.60;;;;;;5052060;28;20537;-70
2023/05/07 01:15:40;;;;;;;1.40;1.30;;;15.50;38.70;;;;;;5052068;28;20375;-69
2023/05/07 01:18:07;;;;;;;1.38;1.30;;;15.50;38.60;;;;;;5053105;28;20032;-70
2023/05/07 01:20:32;;;;;;;2.33;1.25;;;15.50;38.70;;;;;;5053319;28;20033;-70
2023/05/07 01:23:00;;;;;;;1.38;1.27;;;15.50;38.70;;;;;;5052989;28;20078;-69
2023/05/07 01:25:26;;;;;;;1.60;1.50;;;15.50;38.70;;;;;;5053059;28;20043;-70
2023/05/07 01:27:51;;;;;;;1.45;1.35;;;15.50;38.80;;;;;;5052551;28;20029;-69
2023/05/07 01:30:20;;;;;;;1.77;1.48;;;15.40;38.70;;;;;;5052194;28;20393;-70
2023/05/07 01:32:49;;;;;;;1.55;1.45;;;15.40;38.70;;;;;;5052143;28;20386;-70
2023/05/07 01:35:22;;;;;;;1.50;1.40;;;15.40;38.70;;;;;;5053384;28;20031;-70
2023/05/07 01:37:49;;;;;;;1.85;1.60;;;15.40;38.80;;;;;;5057020;28;20025;-70
2023/05/07 01:40:15;;;;;;;1.85;1.60;;;15.40;39.40;;;;;;5055740;28;20033;-69
2023/05/07 01:42:43;;;;;;;1.75;1.20;;;15.40;38.80;;;;;;5056976;28;20115;-70
2023/05/07 01:45:09;;;;;;;1.38;1.27;;;15.30;38.80;;;;;;5056910;28;20033;-69
2023/05/07 01:47:36;;;;;;;1.40;1.30;;;15.30;38.80;;;;;;5056465;28;20029;-70
2023/05/07 01:50:01;;;;;;;1.55;1.45;;;15.30;38.80;;;;;;5056283;28;20024;-69
2023/05/07 01:52:28;;;;;;;1.25;1.23;;;15.30;38.80;;;;;;5056389;28;20025;-70
2023/05/07 01:54:54;;;;;;;1.40;1.30;;;15.30;38.90;;;;;;5056998;28;20410;-70
2023/05/07 01:57:20;;;;;;;1.40;1.30;;;15.30;38.90;;;;;;5056689;28;20040;-70
2023/05/07 01:59:46;;;;;;;1.42;1.33;;;15.30;38.80;;;;;;5056674;28;20406;-69
2023/05/07 02:02:11;;;;;;;1.55;1.40;;;15.30;38.80;;;;;;5056713;28;20024;-70
2023/05/07 02:04:37;;;;;;;2.33;1.58;;;15.30;38.80;;;;;;5055713;28;20033;-69
2023/05/07 02:07:03;;;;;;;1.17;1.17;;;15.30;38.80;;;;;;5055351;28;20025;-70
2023/05/07 02:09:28;;;;;;;1.50;1.40;;;15.30;38.80;;;;;;5056388;28;20025;-70
2023/05/07 02:11:54;;;;;;;1.50;1.40;;;15.30;38.80;;;;;;5056781;28;20367;-70
2023/05/07 02:14:20;;;;;;;1.92;1.63;;;15.30;38.80;;;;;;5056193;28;20036;-70
2023/05/07 02:16:46;;;;;;;1.40;1.30;;;15.30;38.80;;;;;;5056210;28;20033;-69
2023/05/07 02:19:11;;;;;;;1.40;1.30;;;15.30;38.90;;;;;;5055040;28;20120;-70
2023/05/07 02:21:37;;;;;;;3.20;1.50;;;15.30;38.90;;;;;;5056474;28;20051;-70
2023/05/07 02:24:02;;;;;;;2.03;1.30;;;15.30;38.90;;;;;;5056088;28;20048;-70
2023/05/07 02:26:28;;;;;;;1.58;1.48;;;15.30;38.90;;;;;;5056099;28;20063;-70
2023/05/07 02:28:54;;;;;;;2.17;1.35;;;15.40;38.90;;;;;;5056246;28;20053;-70
2023/05/07 02:31:19;;;;;;;1.50;1.40;;;15.40;39.00;;;;;;5055777;28;20044;-70
2023/05/07 02:33:45;;;;;;;1.38;1.30;;;15.40;39.00;;;;;;5056186;28;20076;-70
2023/05/07 02:36:12;;;;;;;1.50;1.40;;;15.40;38.90;;;;;;5054484;28;20025;-70
2023/05/07 02:38:38;;;;;;;1.40;1.30;;;15.40;39.00;;;;;;5055935;28;20025;-70
2023/05/07 02:41:04;;;;;;;2.20;1.40;;;15.40;38.90;;;;;;5055777;28;20044;-70
2023/05/07 02:43:29;;;;;;;1.50;1.40;;;15.40;39.00;;;;;;5055860;28;20108;-70
2023/05/07 02:46:05;;;;;;;1.30;1.20;;;15.40;39.00;;;;;;5055845;28;20021;-70
2023/05/07 02:48:31;;;;;;;1.45;1.35;;;15.40;39.00;;;;;;5053114;28;20391;-70
2023/05/07 02:50:58;;;;;;;1.70;1.50;;;15.40;39.00;;;;;;5055360;28;20033;-70
2023/05/07 02:53:25;;;;;;;2.03;1.40;;;15.40;39.00;;;;;;5055931;28;20029;-70
2023/05/07 02:56:01;;;;;;;1.60;1.50;;;15.40;39.00;;;;;;5054334;28;20182;-70
2023/05/07 02:58:27;;;;;;;1.45;1.35;;;15.40;39.00;;;;;;5055659;28;20021;-70
2023/05/07 03:00:54;;;;;;;2.38;1.40;;;15.30;39.00;;;;;;5054747;28;20036;-73
2023/05/07 03:03:20;;;;;;;1.45;1.35;;;15.30;39.10;;;;;;5055143;28;20040;-70
2023/05/07 03:05:46;;;;;;;1.65;1.55;;;15.30;39.10;;;;;;5055214;28;20476;-70
2023/05/07 03:08:11;;;;;;;1.50;1.40;;;15.30;39.10;;;;;;5055612;28;20025;-70
2023/05/07 03:10:37;;;;;;;1.67;1.58;;;15.40;39.20;;;;;;5055134;28;20463;-70
2023/05/07 03:13:04;;;;;;;1.50;1.40;;;15.40;39.30;;;;;;5055149;28;20048;-70
2023/05/07 03:15:30;;;;;;;1.33;1.23;;;15.40;39.30;;;;;;5055054;28;20367;-71
2023/05/07 03:17:56;;;;;;;1.50;1.40;;;15.40;39.30;;;;;;5054950;28;20031;-70
2023/05/07 03:20:22;;;;;;;2.00;1.85;;;15.40;39.30;;;;;;5054980;28;20422;-72
2023/05/07 03:22:47;;;;;;;1.42;1.35;;;15.40;39.30;;;;;;5054431;28;20025;-70
2023/05/07 03:25:14;;;;;;;1.60;1.50;;;15.40;39.30;;;;;;5053716;28;20032;-70
2023/05/07 03:27:41;;;;;;;1.67;1.58;;;15.40;39.30;;;;;;5054789;28;20391;-70
2023/05/07 03:30:08;;;;;;;1.58;1.48;;;15.50;39.40;;;;;;5053246;28;20540;-74
2023/05/07 03:32:35;;;;;;;1.50;1.40;;;15.50;39.30;;;;;;5034069;28;20029;-71
2023/05/07 03:35:01;;;;;;;1.50;1.40;;;15.50;39.40;;;;;;5035347;28;20371;-69
2023/05/07 03:37:26;;;;;;;1.55;1.40;;;15.50;39.30;;;;;;5034549;28;20082;-69
2023/05/07 03:39:52;;;;;;;1.40;1.30;;;15.50;39.30;;;;;;5034631;28;20099;-69
2023/05/07 03:42:17;;;;;;;1.60;1.50;;;15.50;39.30;;;;;;5034582;28;20025;-70
2023/05/07 03:44:43;;;;;;;2.58;1.48;;;15.50;39.20;;;;;;5034480;28;20164;-69
2023/05/07 03:47:10;;;;;;;1.50;1.40;;;15.60;39.30;;;;;;5033996;28;20030;-70
2023/05/07 03:49:35;;;;;;;1.40;1.30;;;15.60;39.30;;;;;;5034787;28;20030;-69
2023/05/07 03:52:01;;;;;;;1.38;1.27;;;15.60;39.30;;;;;;5034457;28;20036;-69
2023/05/07 03:54:27;;;;;;;1.50;1.40;;;15.70;39.30;;;;;;5034269;28;20095;-70
2023/05/07 03:56:52;;;;;;;1.50;1.40;;;15.70;39.90;;;;;;5034365;28;20025;-70
2023/05/07 03:59:18;;;;;;;1.38;1.27;;;15.70;39.20;;;;;;5034053;28;20022;-71
2023/05/07 04:01:44;;;;;;;1.40;1.30;;;15.70;39.20;;;;;;5046411;28;20028;-71
2023/05/07 04:04:09;;;;;;;1.50;1.40;;;15.80;39.30;;;;;;5054121;28;20028;-72
2023/05/07 04:06:35;;;;;;;1.70;1.35;;;15.80;39.20;;;;;;5054235;28;20029;-72
2023/05/07 04:09:00;;;;;;;1.70;1.60;;;15.80;39.20;;;;;;5054506;28;20391;-70
2023/05/07 04:11:26;;;;;;;1.63;1.42;;;15.90;39.20;;;;;;5053979;28;20108;-70
2023/05/07 04:13:52;;;;;;;1.30;1.20;;;15.90;39.20;;;;;;5052763;28;20119;-70
2023/05/07 04:16:18;;;;;;;1.40;1.30;;;16.00;39.30;;;;;;5053877;28;20527;-71
2023/05/07 04:18:43;;;;;;;1.60;1.50;;;16.00;39.30;;;;;;5053979;28;20021;-70
2023/05/07 04:21:19;;;;;;;1.48;1.38;;;16.00;39.20;;;;;;5054020;28;20036;-70
2023/05/07 04:23:46;;;;;;;1.40;1.30;;;16.00;39.10;;;;;;5053845;28;20036;-70
2023/05/07 04:26:11;;;;;;;1.40;1.30;;;16.00;39.20;;;;;;5053718;28;20475;-70
2023/05/07 04:28:39;;;;;;;1.67;1.58;;;16.10;39.20;;;;;;5052541;28;20043;-70
2023/05/07 04:31:05;;;;;;;2.00;1.40;;;16.00;39.20;;;;;;5052218;28;20033;-72
2023/05/07 04:33:31;;;;;;;1.33;1.20;;;16.10;39.20;;;;;;5053775;28;20029;-71
2023/05/07 04:35:57;;;;;;;1.20;1.20;;;16.10;39.20;;;;;;5053865;28;20489;-70
2023/05/07 04:38:23;;;;;;;1.33;1.23;;;16.10;39.10;;;;;;5052628;28;20098;-70
2023/05/07 04:40:49;;;;;;;1.40;1.30;;;16.20;39.20;;;;;;5054057;28;20056;-71
2023/05/07 04:43:15;;;;;;;1.60;1.50;;;16.20;39.20;;;;;;5053467;28;20055;-71
2023/05/07 04:45:41;;;;;;;1.58;1.48;;;16.30;39.20;;;;;;5054051;28;20025;-70
2023/05/07 04:48:08;;;;;;;2.55;1.40;;;16.30;39.10;;;;;;5053689;28;20037;-71
2023/05/07 04:50:34;;;;;;;1.42;1.33;;;16.30;39.00;;;;;;5052271;28;20060;-71
2023/05/07 04:53:00;;;;;;;1.52;1.42;;;16.40;39.00;;;;;;5053552;28;20433;-71
2023/05/07 04:55:25;;;;;;;1.50;1.40;;;16.40;39.00;;;;;;5053719;28;20100;-72
2023/05/07 04:57:52;;;;;;;1.40;1.30;;;16.40;38.90;;;;;;5053612;28;20021;-71
2023/05/07 05:00:19;;;;;;;1.38;1.27;;;16.50;38.90;;;;;;5053430;28;20539;-71
2023/05/07 05:02:45;;;;;;;1.27;1.27;;;16.50;38.80;;;;;;5052858;28;20495;-71
2023/05/07 05:05:11;;;;;;;2.22;1.25;;;16.50;38.80;;;;;;5053752;28;20021;-71
2023/05/07 05:07:37;;;;;;;2.80;1.30;;;16.60;38.70;;;;;;5053330;28;20036;-71
2023/05/07 05:10:05;;;;;;;1.65;1.30;;;16.60;38.60;;;;;;5053679;28;20029;-72
2023/05/07 05:12:31;;;;;;;2.03;1.40;;;16.60;38.40;;;;;;5055584;28;20554;-71
2023/05/07 05:14:56;;;;;;;1.33;1.23;;;16.60;38.50;;;;;;5057914;28;20139;-71
2023/05/07 05:17:22;;;;;;;1.40;1.30;;;16.60;38.50;;;;;;5057539;28;20021;-70
2023/05/07 05:19:48;;;;;;;1.13;1.13;;;16.70;39.00;;;;;;5057390;28;20029;-70
2023/05/07 05:22:13;;;;;;;1.35;1.25;;;16.70;38.30;;;;;;5057410;28;20025;-71
2023/05/07 05:24:39;;;;;;;1.35;1.25;;;16.80;38.20;;;;;;5057445;28;20056;-70
2023/05/07 05:27:05;;;;;;;2.05;1.42;;;16.80;38.10;;;;;;5057239;28;20029;-71
2023/05/07 05:29:34;;;;;;;1.30;1.20;;;16.90;38.00;;;;;;5057474;28;20099;-70
2023/05/07 05:31:59;;;;;;;1.10;1.10;;;16.90;38.00;;;;;;5039479;28;20037;-71
2023/05/07 05:34:25;;;;;;;1.48;1.25;;;16.90;37.80;;;;;;5036097;28;20029;-71
2023/05/07 05:36:51;;;;;;;1.35;1.25;;;16.90;37.70;;;;;;5037174;28;20112;-71
2023/05/07 05:39:17;;;;;;;1.10;1.10;;;16.90;37.70;;;;;;5036961;28;20031;-71
2023/05/07 05:41:43;;;;;;;1.30;1.20;;;16.90;37.70;;;;;;5037233;28;20418;-71
2023/05/07 05:44:08;;;;;;;1.00;1.00;;;17.00;37.70;;;;;;5037833;28;20025;-71
2023/05/07 05:46:35;;;;;;;1.20;1.10;;;17.00;37.60;;;;;;5037016;28;20379;-71
2023/05/07 05:49:00;;;;;;;1.55;1.30;;;17.10;37.60;;;;;;5037044;28;20026;-70
2023/05/07 05:51:26;;;;;;;1.40;1.30;;;17.10;37.50;;;;;;5036920;28;20037;-71
2023/05/07 05:53:52;;;;;;;1.00;1.00;;;17.20;37.50;;;;;;5036398;28;20479;-71
2023/05/07 05:56:17;;;;;;;1.42;1.33;;;17.20;37.40;;;;;;5035359;28;20670;-71
2023/05/07 05:58:43;;;;;;;1.05;1.05;;;17.30;37.40;;;;;;5037083;28;20380;-71
2023/05/07 06:01:09;;;;;;;1.20;1.10;;;17.30;37.30;;;;;;5036711;28;20025;-71
2023/05/07 06:03:35;;;;;;;2.17;1.25;;;17.40;37.30;;;;;;5036896;28;20025;-71
2023/05/07 06:06:00;;;;;;;1.17;1.15;;;17.40;37.20;;;;;;5037503;28;20104;-71
2023/05/07 06:08:29;;;;;;;1.95;1.10;;;17.50;37.20;;;;;;5036737;28;20084;-73
2023/05/07 06:10:55;;;;;;;2.47;1.20;;;17.60;37.10;;;;;;5042701;28;20120;-71
2023/05/07 06:13:20;;;;;;;1.40;1.30;;;17.60;36.90;;;;;;5056566;28;20104;-71
2023/05/07 06:15:46;;;;;;;1.20;1.10;;;17.60;36.60;;;;;;5056126;28;20033;-70
2023/05/07 06:18:12;;;;;;;2.25;1.10;;;17.60;36.60;;;;;;5056834;28;20033;-70
2023/05/07 06:20:37;;;;;;;1.85;1.30;;;17.70;36.70;;;;;;5044591;28;20104;-71
2023/05/07 06:23:03;;;;;;;1.25;1.10;;;17.70;36.70;;;;;;5045490;28;20029;-72
2023/05/07 06:25:28;;;;;;;1.40;1.20;;;17.70;36.60;;;;;;5043858;28;20379;-71
2023/05/07 06:27:54;;;;;;;1.10;1.10;;;17.60;36.50;;;;;;5043885;28;20032;-71
2023/05/07 06:30:20;;;;;;;1.00;1.00;;;17.70;36.40;;;;;;5045429;28;20103;-71
2023/05/07 06:32:46;;;;;;;1.33;1.23;;;17.60;36.40;;;;;;5044475;28;20116;-70
2023/05/07 06:35:11;;;;;;;1.30;1.20;;;17.60;36.30;;;;;;5045183;28;20021;-70
2023/05/07 06:37:39;;;;;;;1.17;1.08;;;17.60;36.20;;;;;;5036449;28;20072;-70
2023/05/07 06:40:06;;;;;;;2.40;1.38;;;17.60;36.10;;;;;;5034596;28;20357;-69
2023/05/07 06:42:32;;;;;;;1.23;1.13;;;17.60;36.60;;;;;;5039612;28;20086;-71
2023/05/07 06:44:58;;;;;;;1.45;1.00;;;17.60;36.60;;;;;;5054123;28;20025;-69
2023/05/07 06:47:23;;;;;;;1.30;1.20;;;17.70;36.60;;;;;;5049613;28;20070;-70
2023/05/07 06:49:49;;;;;;;1.20;1.10;;;17.90;36.70;;;;;;5045004;28;20033;-70
2023/05/07 06:52:15;;;;;;;1.95;1.17;;;18.00;36.10;;;;;;5042584;28;20468;-74
2023/05/07 06:54:40;;;;;;;1.45;1.35;;;18.00;35.30;;;;;;5041856;28;20033;-72
2023/05/07 06:57:07;;;;;;;1.30;1.20;;;18.00;35.50;;;;;;5042549;28;20107;-72
2023/05/07 06:59:32;;;;;;;1.60;1.50;;;18.00;35.80;;;;;;5044295;28;20025;-75
2023/05/07 07:01:58;;;;;;;2.33;1.23;;;18.00;34.60;;;;;;5043602;28;20033;-71
2023/05/07 07:04:24;;;;;;;1.40;1.30;;;17.90;34.90;;;;;;5039580;28;20092;-70
2023/05/07 07:06:51;;;;;;;1.83;1.48;;;17.90;35.10;;;;;;5048007;28;20048;-73
2023/05/07 07:09:17;;;;;;;1.33;1.20;;;17.90;34.60;;;;;;5053304;28;20033;-70
2023/05/07 07:11:42;;;;;;;1.27;1.20;;;17.90;34.80;;;;;;5054737;28;20029;-71
2023/05/07 07:14:08;;;;;;;1.42;1.33;;;18.00;35.00;;;;;;5054779;28;20021;-70
2023/05/07 07:16:33;;;;;;;1.10;1.10;;;18.00;34.90;;;;;;5055508;28;20024;-70
2023/05/07 07:18:59;;;;;;;2.33;1.27;;;18.00;34.50;;;;;;5054107;28;20367;-72
2023/05/07 07:21:25;;;;;;;1.10;1.10;;;18.10;34.30;;;;;;5054794;28;20025;-71
2023/05/07 07:23:50;;;;;;;1.10;1.10;;;18.00;34.30;;;;;;5055183;28;20029;-70
2023/05/07 07:26:17;;;;;;;1.35;1.17;;;18.00;33.60;;;;;;5055127;28;20451;-70
2023/05/07 07:28:44;;;;;;;1.10;1.10;;;17.90;33.50;;;;;;5055213;28;20082;-70
2023/05/07 07:31:10;;;;;;;1.13;1.02;;;17.90;33.80;;;;;;5055323;28;20052;-70
2023/05/07 07:33:36;;;;;;;1.52;1.40;;;17.90;33.90;;;;;;5052903;28;20036;-70
2023/05/07 07:36:02;;;;;;;1.40;1.30;;;17.90;33.70;;;;;;5053386;28;20025;-70
2023/05/07 07:38:28;;;;;;;1.25;1.15;;;17.90;33.60;;;;;;5054604;28;20443;-70
2023/05/07 07:40:53;;;;;;;1.10;1.05;;;17.80;33.50;;;;;;5054934;28;20033;-70
2023/05/07 07:43:19;;;;;;;1.02;1.02;;;17.80;33.80;;;;;;5054920;28;20032;-70
2023/05/07 07:45:45;;;;;;;1.63;1.30;;;17.90;33.40;;;;;;5054808;28;20523;-70
2023/05/07 07:48:11;;;;;;;1.55;1.30;;;17.90;33.40;;;;;;5054865;28;20021;-70
2023/05/07 07:50:37;;;;;;;0.90;0.90;;;17.90;33.60;;;;;;5054698;28;20036;-70
2023/05/07 07:53:03;;;;;;;2.53;1.17;;;18.00;33.50;;;;;;5054385;28;20108;-70
2023/05/07 07:55:28;;;;;;;1.02;1.02;;;18.10;33.50;;;;;;5054578;28;20452;-70
2023/05/07 07:57:54;;;;;;;1.42;1.10;;;18.20;33.50;;;;;;5054393;28;20021;-70
2023/05/07 08:00:20;;;;;;;1.00;1.00;;;18.30;33.40;;;;;;5054564;28;20433;-70
2023/05/07 08:02:46;;;;;;;1.20;1.10;;;18.40;32.60;;;;;;5054590;28;20033;-70
2023/05/07 08:05:12;;;;;;;1.50;1.40;;;18.40;32.90;;;;;;5054368;28;20025;-71
2023/05/07 08:07:37;;;;;;;0.80;0.80;;;18.40;32.60;;;;;;5054570;28;20029;-70
2023/05/07 08:10:03;;;;;;;0.98;0.98;;;18.40;32.80;;;;;;5054179;28;20430;-70
2023/05/07 08:12:29;;;;;;;1.08;1.00;;;18.50;32.80;;;;;;5054089;28;20065;-70
2023/05/07 08:14:55;;;;;;;1.02;0.90;;;18.50;32.60;;;;;;5054312;28;20071;-70
2023/05/07 08:17:22;;;;;;;1.10;1.10;;;18.60;32.70;;;;;;5054073;28;20052;-70
2023/05/07 08:19:48;;;;;;;1.20;1.10;;;18.70;32.60;;;;;;5053904;28;20017;-71
2023/05/07 08:22:13;;;;;;;1.05;1.00;;;18.80;32.60;;;;;;5054108;28;20091;-70
2023/05/07 08:24:40;;;;;;;1.05;1.05;;;18.80;32.40;;;;;;5054486;28;20024;-70
2023/05/07 08:27:06;;;;;;;1.45;1.10;;;18.90;32.40;;;;;;5054027;28;20112;-70
2023/05/07 08:29:31;;;;;;;1.20;1.10;;;18.90;32.20;;;;;;5053913;28;20048;-70
2023/05/07 08:31:57;;;;;;;1.17;1.08;;;19.00;32.30;;;;;;5053536;28;20440;-70
2023/05/07 08:34:23;;;;;;;3.05;1.10;;;19.00;32.30;;;;;;5053747;28;20162;-70
2023/05/07 08:36:48;;;;;;;0.95;0.95;;;19.10;32.10;;;;;;5053733;28;20024;-70
2023/05/07 08:39:17;;;;;;;1.20;1.10;;;19.10;31.90;;;;;;5053616;28;20021;-70
2023/05/07 08:41:46;;;;;;;1.20;1.08;;;19.20;32.00;;;;;;5053647;28;20033;-70
2023/05/07 08:44:13;;;;;;;1.05;0.95;;;19.20;31.40;;;;;;5052338;28;20112;-70
2023/05/07 08:46:41;;;;;;;2.05;0.90;;;19.10;31.60;;;;;;5052884;28;20105;-70
2023/05/07 08:49:07;;;;;;;1.02;0.90;;;19.20;31.80;;;;;;5052073;28;20029;-70
2023/05/07 08:51:33;;;;;;;1.67;1.00;;;19.20;31.70;;;;;;5053360;28;20029;-70
2023/05/07 08:54:01;;;;;;;0.93;0.93;;;19.30;31.50;;;;;;5053310;28;20459;-70
2023/05/07 08:56:26;;;;;;;0.80;0.80;;;19.40;31.60;;;;;;5053356;28;20025;-70
2023/05/07 08:58:56;;;;;;;0.80;0.80;;;19.50;31.40;;;;;;5053406;28;20366;-70
2023/05/07 09:01:21;;;;;;;0.80;0.80;;;19.50;31.30;;;;;;5052020;28;20033;-71
2023/05/07 09:03:48;;;;;;;1.30;1.08;;;19.50;31.00;;;;;;5052287;28;20490;-70
2023/05/07 09:06:15;;;;;;;1.13;1.13;;;19.40;30.90;;;;;;5052143;28;20135;-70
2023/05/07 09:08:40;;;;;;;0.88;0.88;;;19.30;30.90;;;;;;5053484;28;20028;-70
2023/05/07 09:11:06;;;;;;;1.00;1.00;;;19.30;31.00;;;;;;5051887;28;20115;-70
2023/05/07 09:13:32;;;;;;;1.10;1.10;;;19.30;30.90;;;;;;5053184;28;20033;-70
2023/05/07 09:15:57;;;;;;;0.90;0.90;;;19.30;30.90;;;;;;5053167;28;20047;-72
2023/05/07 09:18:26;;;;;;;1.02;0.90;;;19.30;30.80;;;;;;5051679;28;20022;-71
2023/05/07 09:20:52;;;;;;;1.17;0.93;;;19.30;30.60;;;;;;5053311;28;20029;-71
2023/05/07 09:23:17;;;;;;;0.80;0.80;;;19.20;30.90;;;;;;5053291;28;20031;-71
2023/05/07 09:25:43;;;;;;;1.30;1.20;;;19.30;31.00;;;;;;5053699;28;20029;-71
2023/05/07 09:28:10;;;;;;;1.30;0.90;;;19.30;30.40;;;;;;5053636;28;20025;-69
2023/05/07 09:30:36;;;;;;;1.10;1.00;;;19.20;30.50;;;;;;5052983;28;20106;-71
2023/05/07 09:33:03;;;;;;;0.98;0.82;;;19.20;30.80;;;;;;5051914;28;20029;-71
2023/05/07 09:35:30;;;;;;;1.23;1.08;;;19.20;30.80;;;;;;5052986;28;20406;-71
2023/05/07 09:37:57;;;;;;;0.93;0.85;;;19.30;30.80;;;;;;5053107;28;20082;-71
2023/05/07 09:40:25;;;;;;;1.00;0.98;;;19.30;30.80;;;;;;5053249;28;20029;-71
2023/05/07 09:42:51;;;;;;;0.80;0.80;;;19.40;30.90;;;;;;5053079;28;20036;-70
2023/05/07 09:45:25;;;;;;;1.05;0.90;;;19.50;30.70;;;;;;5051742;28;20459;-70
2023/05/07 09:47:54;;;;;;;1.05;0.90;;;19.60;30.70;;;;;;5053147;28;20086;-70
2023/05/07 09:50:27;;;;;;;0.82;0.82;;;19.50;30.80;;;;;;5053042;28;20479;-70
2023/05/07 09:52:53;;;;;;;0.85;0.70;;;19.60;30.80;;;;;;5051762;28;20033;-70
2023/05/07 09:55:20;;;;;;;0.82;0.82;;;19.60;30.80;;;;;;5052887;28;20094;-69
2023/05/07 09:57:46;;;;;;;1.08;1.08;;;19.60;30.80;;;;;;5055273;28;20099;-70
2023/05/07 10:00:13;;;;;;;1.10;1.10;;;19.60;30.70;;;;;;5056595;28;20459;-70
2023/05/07 10:02:46;;;;;;;1.00;0.93;;;19.50;30.60;;;;;;5056437;28;20036;-70
2023/05/07 10:05:13;;;;;;;1.13;1.08;;;19.40;30.60;;;;;;5055778;28;20028;-70
2023/05/07 10:07:40;;;;;;;1.08;0.88;;;19.20;30.70;;;;;;5055207;28;20430;-69
2023/05/07 10:10:07;;;;;;;1.02;0.95;;;19.10;30.60;;;;;;5055260;28;20036;-71
2023/05/07 10:12:38;;;;;;;0.82;0.82;;;19.00;30.80;;;;;;5055276;28;20048;-70
2023/05/07 10:15:10;;;;;;;1.00;1.00;;;18.90;30.90;;;;;;5055216;28;20471;-70
2023/05/07 10:17:36;;;;;;;0.98;0.93;;;18.90;31.00;;;;;;5055144;28;20024;-71
2023/05/07 10:20:02;;;;;;;1.23;1.13;;;18.90;30.70;;;;;;5056323;28;20029;-71
2023/05/07 10:22:32;;;;;;;1.10;1.00;;;18.90;30.90;;;;;;5056353;28;20072;-70
2023/05/07 10:25:02;;;;;;;1.63;1.33;;;18.80;30.50;;;;;;5056127;28;20040;-70
2023/05/07 10:27:29;;;;;;;1.70;1.00;;;18.80;30.80;;;;;;5056265;28;20036;-71
2023/05/07 10:30:17;;;;;;;0.90;0.90;;;18.70;30.90;;;;;;5055062;28;20056;-70
2023/05/07 10:32:47;;;;;;;1.13;1.13;;;18.80;30.50;;;;;;5055727;28;20029;-70
2023/05/07 10:35:20;;;;;;;0.95;0.95;;;18.70;30.90;;;;;;5055820;28;20029;-70
2023/05/07 10:37:46;;;;;;;1.20;1.10;;;18.70;30.80;;;;;;5055944;28;20463;-71
2023/05/07 10:40:12;;;;;;;0.90;0.90;;;18.80;30.90;;;;;;5056117;28;20120;-70
2023/05/07 10:42:39;;;;;;;1.00;1.00;;;18.80;30.80;;;;;;5054479;28;20479;-70
2023/05/07 10:45:15;;;;;;;2.10;1.17;;;18.80;30.60;;;;;;5054411;28;20032;-70
2023/05/07 10:48:30;;;;;;;1.23;1.15;;;18.70;30.50;;;;;;5055622;28;20031;-71
2023/05/07 10:51:23;;;;;;;0.80;0.80;;;18.70;30.40;;;;;;5054828;28;20083;-69
2023/05/07 10:54:08;;;;;;;1.00;1.00;;;18.70;30.50;;;;;;5055490;28;20032;-69
2023/05/07 10:56:34;;;;;;;1.33;1.23;;;18.70;30.70;;;;;;5055661;28;20032;-70
2023/05/07 10:59:19;;;;;;;1.20;1.10;;;18.70;30.80;;;;;;5055932;28;20375;-69
2023/05/07 11:02:02;;;;;;;2.03;1.23;;;18.60;30.30;;;;;;5054066;28;20029;-70
2023/05/07 11:04:27;;;;;;;1.15;1.05;;;18.70;30.60;;;;;;5055382;28;20033;-70
2023/05/07 11:07:09;;;;;;;1.20;1.10;;;18.70;30.60;;;;;;5055460;28;20090;-70
2023/05/07 11:09:52;;;;;;;2.15;1.10;;;18.70;30.50;;;;;;5054418;28;20029;-70
2023/05/07 11:12:36;;;;;;;1.00;1.00;;;18.60;29.80;;;;;;5055407;28;20033;-70
2023/05/07 11:15:36;;;;;;;1.50;1.40;;;18.60;30.30;;;;;;5054965;28;20262;-70
2023/05/07 11:18:03;;;;;;;0.88;0.88;;;18.60;30.40;;;;;;5054888;28;20056;-70
2023/05/07 11:20:58;;;;;;;1.88;1.00;;;18.60;30.70;;;;;;5055176;28;20410;-70
2023/05/07 11:23:32;;;;;;;;;;;18.60;30.00;;;;;;5055446;28;20032;-70
2023/05/07 11:26:06;;;;;;;2.55;1.30;;;18.60;30.00;;;;;;5055113;28;20021;-70
2023/05/07 11:28:40;;;;;;;1.07;0.97;;;18.60;30.60;;;;;;5053599;28;20033;-70
2023/05/07 11:31:06;;;;;;;0.98;0.98;;;18.50;30.70;;;;;;5054791;28;20021;-70
2023/05/07 11:33:32;;;;;;;0.93;0.93;;;18.60;30.80;;;;;;5054703;28;20112;-71
2023/05/07 11:35:59;;;;;;;1.05;1.02;;;18.60;30.80;;;;;;5054977;28;20111;-70
2023/05/07 11:38:25;;;;;;;1.02;0.90;;;18.70;30.90;;;;;;5054597;28;20079;-70
2023/05/07 11:40:56;;;;;;;1.40;0.90;;;18.70;30.80;;;;;;5054897;28;20029;-70
2023/05/07 11:43:21;;;;;;;1.08;1.00;;;18.80;30.70;;;;;;5055035;28;20052;-70
2023/05/07 11:45:48;;;;;;;0.80;0.80;;;18.90;30.70;;;;;;5054702;28;20063;-70
2023/05/07 11:48:15;;;;;;;1.08;1.00;;;19.00;30.70;;;;;;5054224;28;20033;-70
2023/05/07 11:50:59;;;;;;;0.90;0.90;;;19.10;30.40;;;;;;5053256;28;20075;-70
2023/05/07 11:53:26;;;;;;;1.20;1.15;;;19.10;30.40;;;;;;5054623;28;20036;-70
2023/05/07 11:55:58;;;;;;;1.50;1.40;;;19.10;30.30;;;;;;5054445;28;20113;-70
2023/05/07 11:58:25;;;;;;;1.20;1.10;;;19.10;30.20;;;;;;5054419;28;20025;-70
2023/05/07 12:00:52;;;;;;;0.90;0.90;;;19.10;30.40;;;;;;5054056;28;20028;-70
2023/05/07 12:03:18;;;;;;;1.30;1.20;;;19.20;30.40;;;;;;5054238;28;20116;-70
2023/05/07 12:05:45;;;;;;;1.48;1.20;;;19.20;30.50;;;;;;5054232;28;20105;-70
2023/05/07 12:08:21;;;;;;;1.50;1.15;;;19.30;30.40;;;;;;5054348;28;20056;-70
2023/05/07 12:10:49;;;;;;;1.20;1.10;;;19.30;30.30;;;;;;5054096;28;20155;-70
2023/05/07 12:13:20;;;;;;;1.30;1.13;;;19.30;30.50;;;;;;5053912;28;20052;-70
2023/05/07 12:15:46;;;;;;;1.20;1.10;;;19.30;30.30;;;;;;5054140;28;20029;-70
2023/05/07 12:18:13;;;;;;;1.00;1.00;;;19.30;30.40;;;;;;5054034;28;20040;-69
2023/05/07 12:20:39;;;;;;;1.48;1.38;;;19.30;30.40;;;;;;5053807;28;20020;-69
2023/05/07 12:23:05;;;;;;;1.20;1.10;;;19.30;30.50;;;;;;5053878;28;20033;-70
2023/05/07 12:25:46;;;;;;;1.30;1.20;;;19.40;30.50;;;;;;5054127;28;20025;-71
2023/05/07 12:28:14;;;;;;;1.20;1.10;;;19.50;30.40;;;;;;5054414;28;20029;-70
2023/05/07 12:30:40;;;;;;;1.30;1.20;;;19.50;30.40;;;;;;5054150;28;20049;-70
2023/05/07 12:33:06;;;;;;;2.65;1.27;;;19.60;30.50;;;;;;5052497;28;20036;-70
2023/05/07 12:35:36;;;;;;;2.47;1.20;;;19.70;30.30;;;;;;5053747;28;20025;-70
2023/05/07 12:38:04;;;;;;;1.42;1.33;;;19.80;30.20;;;;;;5053920;28;20048;-70
2023/05/07 12:40:40;;;;;;;1.40;1.30;;;19.80;30.20;;;;;;5054025;28;20033;-70
2023/05/07 12:43:06;;;;;;;1.05;1.05;;;19.90;30.20;;;;;;5053848;28;20025;-71
2023/05/07 12:45:38;;;;;;;1.30;1.20;;;20.00;30.30;;;;;;5054006;28;20035;-70
2023/05/07 12:48:04;;;;;;;2.22;1.27;;;20.10;30.30;;;;;;5053663;28;20025;-69